Time;durP1;ratioP1;P1;durP2;ratioP2;P2;SDS_P1;SDS_P2;PMS_P1;PMS_P2;Temp;Humidity;BMP_temperature;BMP_pressure;BME280_temperature;BME280_humidity;BME280_pressure;Samples;Min_cycle;Max_cycle;Signal;HPM_P1;HPM_P2
2022/07/29 00:02:24;;;;;;;0.00;0.00;;;;;;;17.30;66.24;101613.38;4980739;28;20089;-66
2022/07/29 00:04:49;;;;;;;0.00;0.00;;;;;;;17.41;66.85;101623.22;4970084;28;20467;-66
2022/07/29 00:07:15;;;;;;;0.00;0.00;;;;;;;17.41;66.56;101613.22;4964950;28;20066;-67
2022/07/29 00:09:40;;;;;;;0.00;0.00;;;;;;;17.35;67.62;101602.94;4966282;28;20037;-66
2022/07/29 00:12:05;;;;;;;0.00;0.00;;;;;;;17.41;66.66;101615.06;4961984;28;20111;-67
2022/07/29 00:14:31;;;;;;;0.00;0.00;;;;;;;17.37;67.30;101609.94;4964615;28;20023;-66
2022/07/29 00:16:56;;;;;;;0.00;0.00;;;;;;;17.36;67.52;101613.63;4959657;28;20063;-66
2022/07/29 00:19:21;;;;;;;0.00;0.00;;;;;;;17.28;66.56;101590.94;4960498;28;20045;-66
2022/07/29 00:21:47;;;;;;;0.00;0.00;;;;;;;17.29;66.81;101590.81;4961047;28;20043;-66
2022/07/29 00:24:12;;;;;;;0.00;0.00;;;;;;;17.31;66.87;101596.97;4962268;28;20027;-66
2022/07/29 00:26:37;;;;;;;0.00;0.00;;;;;;;17.29;66.74;101579.97;4963240;28;20106;-66
2022/07/29 00:29:03;;;;;;;0.00;0.00;;;;;;;17.38;66.79;101594.50;4962815;28;20065;-66
2022/07/29 00:31:29;;;;;;;0.00;0.00;;;;;;;17.39;66.63;101602.50;4962693;28;20423;-66
2022/07/29 00:33:55;;;;;;;0.00;0.00;;;;;;;17.34;66.74;101598.50;4946193;28;20474;-66
2022/07/29 00:36:20;;;;;;;0.00;0.00;;;;;;;17.23;66.74;101583.25;4963072;28;20213;-67
2022/07/29 00:38:47;;;;;;;0.00;0.00;;;;;;;17.32;68.41;101593.25;4963983;28;20030;-66
2022/07/29 00:41:13;;;;;;;0.00;0.00;;;;;;;17.31;66.78;101593.38;4959818;28;20137;-67
2022/07/29 00:43:38;;;;;;;0.00;0.00;;;;;;;17.33;66.02;101594.97;4963121;28;20030;-66
2022/07/29 00:46:03;;;;;;;0.00;0.00;;;;;;;17.32;66.77;101598.66;4961933;28;20514;-66
2022/07/29 00:48:29;;;;;;;0.00;0.00;;;;;;;17.32;67.09;101592.38;4964206;28;20062;-67
2022/07/29 00:50:56;;;;;;;0.05;0.00;;;;;;;17.34;66.49;101593.09;4962894;28;20030;-66
2022/07/29 00:53:21;;;;;;;0.00;0.00;;;;;;;17.37;66.21;101598.22;4959915;28;20415;-67
2022/07/29 00:55:47;;;;;;;0.10;0.00;;;;;;;17.22;65.79;101581.53;4959344;28;20033;-66
2022/07/29 00:58:13;;;;;;;0.00;0.00;;;;;;;17.33;66.21;101594.97;4961780;28;20486;-67
2022/07/29 01:00:40;;;;;;;0.00;0.00;;;;;;;17.29;66.31;101593.53;4960498;28;20080;-67
2022/07/29 01:03:06;;;;;;;0.00;0.00;;;;;;;17.26;67.79;101591.09;4960483;28;20113;-66
2022/07/29 01:05:31;;;;;;;0.00;0.00;;;;;;;17.24;67.04;101584.97;4964214;28;20070;-66
2022/07/29 01:07:57;;;;;;;0.00;0.00;;;;;;;17.19;67.00;101598.97;4960841;28;20093;-66
2022/07/29 01:10:23;;;;;;;0.00;0.00;;;;;;;17.16;66.83;101590.25;4970232;28;20375;-66
2022/07/29 01:12:50;;;;;;;0.00;0.00;;;;;;;17.08;67.78;101599.97;4959014;28;20034;-66
2022/07/29 01:15:15;;;;;;;0.00;0.00;;;;;;;17.00;69.21;101610.69;4958229;28;20042;-67
2022/07/29 01:17:46;;;;;;;0.10;0.10;;;;;;;16.90;71.38;101615.22;4962865;28;20055;-66
2022/07/29 01:20:20;;;;;;;0.00;0.00;;;;;;;16.77;74.57;101629.06;4956919;28;20454;-66
2022/07/29 01:23:23;;;;;;;0.00;0.00;;;;;;;16.59;75.37;101613.50;4974227;28;20498;-66
2022/07/29 01:26:07;;;;;;;0.00;0.00;;;;;;;16.42;77.57;101617.72;4960154;28;20081;-67
2022/07/29 01:28:51;;;;;;;0.00;0.00;;;;;;;16.29;80.82;101614.41;4966443;28;20028;-67
2022/07/29 01:31:20;;;;;;;0.00;0.00;;;;;;;16.20;79.78;101610.66;4963702;28;20418;-67
2022/07/29 01:33:50;;;;;;;0.10;0.00;;;;;;;16.01;81.38;101625.88;4963276;28;20042;-67
2022/07/29 01:36:51;;;;;;;0.00;0.00;;;;;;;15.83;81.54;101633.72;4945422;28;20488;-67
2022/07/29 01:39:28;;;;;;;0.00;0.00;;;;;;;15.60;86.21;101646.59;4960021;28;20045;-67
2022/07/29 01:42:02;;;;;;;0.00;0.00;;;;;;;15.02;88.10;101671.31;4953767;28;20526;-66
2022/07/29 01:44:33;;;;;;;0.00;0.00;;;;;;;15.18;85.93;101655.53;4957686;28;20049;-66
2022/07/29 01:47:01;;;;;;;0.00;0.00;;;;;;;15.25;87.75;101653.16;4955593;28;20023;-66
2022/07/29 01:49:31;;;;;;;0.08;0.08;;;;;;;15.22;86.65;101659.72;4959953;28;20026;-67
2022/07/29 01:52:26;;;;;;;0.00;0.00;;;;;;;15.19;87.30;101650.97;4964487;28;20558;-67
2022/07/29 01:55:06;;;;;;;0.00;0.00;;;;;;;15.19;91.52;101641.03;4971118;28;20043;-67
2022/07/29 01:57:33;;;;;;;0.00;0.00;;;;;;;14.89;93.77;101593.09;4956595;28;20046;-67
2022/07/29 02:00:00;;;;;;;0.00;0.00;;;;;;;15.12;92.72;101616.31;4964221;28;20038;-67
2022/07/29 02:02:26;;;;;;;0.00;0.00;;;;;;;15.11;93.46;101617.31;4965004;28;20054;-67
2022/07/29 02:04:53;;;;;;;0.10;0.10;;;;;;;15.06;93.64;101619.56;4948384;28;20149;-67
2022/07/29 02:07:20;;;;;;;0.00;0.00;;;;;;;14.98;94.70;101613.94;4965583;28;20035;-67
2022/07/29 02:09:46;;;;;;;0.00;0.00;;;;;;;14.77;97.02;101587.75;4958200;28;20525;-67
2022/07/29 02:12:13;;;;;;;0.00;0.00;;;;;;;14.87;96.57;101598.63;4960710;28;20054;-67
2022/07/29 02:14:41;;;;;;;0.00;0.00;;;;;;;14.87;96.36;101595.94;4965746;28;20027;-67
2022/07/29 02:17:07;;;;;;;0.00;0.00;;;;;;;14.77;94.17;101565.25;4962396;28;20483;-67
2022/07/29 02:19:34;;;;;;;0.00;0.00;;;;;;;14.92;94.15;101577.47;4957998;28;20109;-67
2022/07/29 02:22:00;;;;;;;0.00;0.00;;;;;;;14.93;95.96;101571.09;4973465;28;20102;-67
2022/07/29 02:24:26;;;;;;;0.00;0.00;;;;;;;14.79;97.22;101550.63;4961724;28;20057;-67
2022/07/29 02:26:54;;;;;;;0.00;0.00;;;;;;;14.77;97.09;101530.97;4963386;28;20206;-67
2022/07/29 02:29:22;;;;;;;0.00;0.00;;;;;;;14.76;96.63;101522.97;4959250;28;20388;-67
2022/07/29 02:31:49;;;;;;;0.00;0.00;;;;;;;14.61;97.42;101517.00;4957793;28;20593;-67
2022/07/29 02:34:15;;;;;;;0.00;0.00;;;;;;;14.62;97.14;101505.19;4976743;28;20490;-67
2022/07/29 02:36:42;;;;;;;0.00;0.00;;;;;;;14.54;98.20;101513.97;4944903;28;20035;-67
2022/07/29 02:39:08;;;;;;;0.00;0.00;;;;;;;14.65;99.52;101531.97;4946335;28;20027;-67
2022/07/29 02:41:40;;;;;;;0.00;0.00;;;;;;;14.67;99.45;101538.09;4957706;28;20027;-67
2022/07/29 02:44:10;;;;;;;0.00;0.00;;;;;;;14.64;98.77;101525.72;4960460;28;20030;-68
2022/07/29 02:46:36;;;;;;;0.00;0.00;;;;;;;14.67;98.24;101509.25;4961816;28;20466;-70
2022/07/29 02:49:21;;;;;;;0.00;0.00;;;;;;;14.68;98.23;101507.38;4951085;28;20031;-69
2022/07/29 02:51:52;;;;;;;0.00;0.00;;;;;;;14.67;97.11;101502.97;4963599;28;20110;-68
2022/07/29 02:54:45;;;;;;;0.00;0.00;;;;;;;14.58;96.54;101512.72;4963468;28;20784;-68
2022/07/29 02:57:19;;;;;;;0.00;0.00;;;;;;;14.52;96.81;101529.44;4963596;28;20558;-67
2022/07/29 02:59:45;;;;;;;0.00;0.00;;;;;;;14.45;95.58;101512.00;4961227;28;20026;-68
2022/07/29 03:02:11;;;;;;;0.00;0.00;;;;;;;14.39;95.38;101500.75;4962448;28;20030;-67
2022/07/29 03:04:37;;;;;;;0.00;0.00;;;;;;;14.53;96.11;101540.13;4958656;28;20045;-67
2022/07/29 03:07:03;;;;;;;0.00;0.00;;;;;;;14.51;96.32;101536.69;4965863;28;20062;-67
2022/07/29 03:09:29;;;;;;;0.00;0.00;;;;;;;14.40;96.96;101521.38;4967879;28;20035;-69
2022/07/29 03:11:55;;;;;;;0.00;0.00;;;;;;;14.31;97.75;101507.75;4962508;28;20078;-69
2022/07/29 03:14:22;;;;;;;0.00;0.00;;;;;;;14.29;97.86;101493.56;4975193;28;20105;-69
2022/07/29 03:16:48;;;;;;;0.00;0.00;;;;;;;14.41;97.26;101495.22;4956297;28;20029;-69
2022/07/29 03:19:14;;;;;;;0.00;0.00;;;;;;;14.42;97.07;101499.63;4965285;28;20034;-69
2022/07/29 03:21:39;;;;;;;0.00;0.00;;;;;;;14.30;96.64;101477.22;4968026;28;20026;-68
2022/07/29 03:24:04;;;;;;;0.00;0.00;;;;;;;14.38;96.73;101482.84;4966590;28;20501;-68
2022/07/29 03:26:30;;;;;;;0.00;0.00;;;;;;;14.48;96.02;101499.13;4964846;28;20371;-69
2022/07/29 03:28:55;;;;;;;0.00;0.00;;;;;;;14.42;96.58;101505.03;4964613;28;20034;-68
2022/07/29 03:31:20;;;;;;;0.03;0.03;;;;;;;14.40;96.27;101515.13;4962811;28;20061;-68
2022/07/29 03:33:46;;;;;;;0.00;0.00;;;;;;;14.39;97.05;101525.06;4975984;28;20038;-69
2022/07/29 03:36:11;;;;;;;0.00;0.00;;;;;;;14.29;96.47;101529.50;4961658;28;20051;-69
2022/07/29 03:38:37;;;;;;;0.10;0.10;;;;;;;14.23;96.92;101503.88;4960625;28;20082;-69
2022/07/29 03:41:09;;;;;;;0.00;0.00;;;;;;;14.42;96.57;101521.25;4964650;28;20037;-69
2022/07/29 03:43:37;;;;;;;0.00;0.00;;;;;;;14.36;96.23;101506.41;4964260;28;20045;-68
2022/07/29 03:46:04;;;;;;;0.00;0.00;;;;;;;14.44;96.59;101513.88;4959769;28;20050;-68
2022/07/29 03:48:30;;;;;;;0.00;0.00;;;;;;;14.35;97.90;101520.03;4950255;28;20080;-68
2022/07/29 03:50:56;;;;;;;0.03;0.03;;;;;;;14.23;98.11;101505.72;4965001;28;20065;-68
2022/07/29 03:53:21;;;;;;;0.00;0.00;;;;;;;14.13;98.20;101510.19;4957329;28;20027;-68
2022/07/29 03:55:51;;;;;;;0.00;0.00;;;;;;;14.22;97.65;101521.06;4956624;28;20130;-68
2022/07/29 03:58:18;;;;;;;0.00;0.00;;;;;;;14.31;97.72;101510.47;4963971;28;20027;-68
2022/07/29 04:00:44;;;;;;;0.00;0.00;;;;;;;14.34;97.16;101508.38;4953786;28;20038;-68
2022/07/29 04:03:10;;;;;;;0.10;0.10;;;;;;;14.24;97.69;101504.72;4960469;28;20131;-69
2022/07/29 04:05:35;;;;;;;0.00;0.00;;;;;;;14.17;97.96;101525.97;4961194;28;20033;-69
2022/07/29 04:08:00;;;;;;;0.00;0.00;;;;;;;14.07;97.28;101531.28;4965486;28;20023;-68
2022/07/29 04:10:26;;;;;;;0.00;0.00;;;;;;;14.22;97.92;101542.69;4967962;28;20462;-68
2022/07/29 04:12:52;;;;;;;0.08;0.08;;;;;;;14.26;97.73;101535.16;4958319;28;20114;-68
2022/07/29 04:15:17;;;;;;;0.00;0.00;;;;;;;14.30;97.39;101533.94;4957815;28;20570;-68
2022/07/29 04:17:43;;;;;;;0.00;0.00;;;;;;;14.25;96.82;101517.25;4965493;28;20675;-68
2022/07/29 04:20:09;;;;;;;0.00;0.00;;;;;;;14.26;97.31;101510.84;4961284;28;20035;-68
2022/07/29 04:22:34;;;;;;;0.00;0.00;;;;;;;14.47;96.53;101537.06;4959313;28;20049;-68
2022/07/29 04:24:59;;;;;;;0.00;0.00;;;;;;;14.54;95.84;101546.38;4965206;28;20031;-68
2022/07/29 04:27:25;;;;;;;0.00;0.00;;;;;;;14.54;96.73;101539.16;4964556;28;20034;-68
2022/07/29 04:29:51;;;;;;;0.00;0.00;;;;;;;14.45;97.11;101541.72;4959438;28;20031;-68
2022/07/29 04:32:16;;;;;;;0.00;0.00;;;;;;;14.40;95.80;101517.81;4961879;28;20066;-68
2022/07/29 04:34:41;;;;;;;0.00;0.00;;;;;;;14.50;96.38;101548.50;4965388;28;20502;-68
2022/07/29 04:37:07;;;;;;;0.00;0.00;;;;;;;14.45;97.24;101544.44;4962686;28;20462;-68
2022/07/29 04:39:32;;;;;;;0.00;0.00;;;;;;;14.40;97.39;101544.81;4960944;28;20452;-68
2022/07/29 04:41:57;;;;;;;0.00;0.00;;;;;;;14.37;98.39;101550.47;4959915;28;20346;-69
2022/07/29 04:44:23;;;;;;;0.00;0.00;;;;;;;14.38;98.81;101546.78;4961673;28;20386;-68
2022/07/29 04:46:48;;;;;;;0.00;0.00;;;;;;;14.39;98.47;101551.22;4964694;28;20110;-68
2022/07/29 04:49:13;;;;;;;0.05;0.05;;;;;;;14.42;97.67;101559.06;4966802;28;20153;-69
2022/07/29 04:51:38;;;;;;;0.00;0.00;;;;;;;14.44;97.97;101554.41;4962067;28;20093;-69
2022/07/29 04:54:04;;;;;;;0.00;0.00;;;;;;;14.51;98.32;101555.63;4963688;28;20471;-68
2022/07/29 04:56:29;;;;;;;0.00;0.00;;;;;;;14.53;98.49;101555.47;4964875;28;20034;-68
2022/07/29 04:58:54;;;;;;;0.00;0.00;;;;;;;14.52;99.37;101560.03;4966299;28;20054;-68
2022/07/29 05:01:20;;;;;;;0.10;0.10;;;;;;;14.48;99.33;101550.47;4959892;28;20521;-69
2022/07/29 05:03:45;;;;;;;0.00;0.00;;;;;;;14.35;98.05;101541.66;4959563;28;20035;-68
2022/07/29 05:06:11;;;;;;;0.00;0.00;;;;;;;14.42;98.33;101572.56;4966474;28;20026;-69
2022/07/29 05:08:36;;;;;;;0.00;0.00;;;;;;;14.45;97.74;101563.34;4959058;28;20035;-68
2022/07/29 05:11:02;;;;;;;0.00;0.00;;;;;;;14.46;96.75;101568.66;4957215;28;20086;-69
2022/07/29 05:13:27;;;;;;;0.00;0.00;;;;;;;14.50;96.42;101580.03;4959107;28;20045;-68
2022/07/29 05:15:53;;;;;;;0.08;0.08;;;;;;;14.50;96.24;101582.75;4959410;28;20852;-68
2022/07/29 05:18:18;;;;;;;0.00;0.00;;;;;;;14.37;96.36;101581.06;4962297;28;20735;-68
2022/07/29 05:20:43;;;;;;;0.00;0.00;;;;;;;14.49;95.34;101586.44;4966027;28;20705;-68
2022/07/29 05:23:12;;;;;;;0.00;0.00;;;;;;;14.39;95.70;101567.44;4966676;28;20077;-67
2022/07/29 05:25:37;;;;;;;0.00;0.00;;;;;;;14.55;95.57;101577.81;4960526;28;20037;-68
2022/07/29 05:28:03;;;;;;;0.00;0.00;;;;;;;14.63;95.52;101585.28;4959000;28;20026;-68
2022/07/29 05:30:28;;;;;;;0.10;0.10;;;;;;;14.61;95.61;101579.16;4962978;28;20049;-67
2022/07/29 05:32:53;;;;;;;0.10;0.10;;;;;;;14.66;94.62;101582.31;4963715;28;20042;-67
2022/07/29 05:35:19;;;;;;;0.00;0.00;;;;;;;14.67;94.41;101584.91;4963700;28;20067;-68
2022/07/29 05:37:44;;;;;;;0.00;0.00;;;;;;;14.69;94.44;101582.97;4959157;28;20204;-67
2022/07/29 05:40:10;;;;;;;0.00;0.00;;;;;;;14.64;94.54;101562.69;4964860;28;20030;-68
2022/07/29 05:42:35;;;;;;;0.00;0.00;;;;;;;14.73;94.81;101561.06;4962562;28;20026;-67
2022/07/29 05:45:01;;;;;;;0.00;0.00;;;;;;;14.81;93.96;101564.00;4961830;28;20045;-67
2022/07/29 05:47:27;;;;;;;0.00;0.00;;;;;;;14.88;93.39;101576.00;4962229;28;20038;-68
2022/07/29 05:49:52;;;;;;;0.00;0.00;;;;;;;14.85;93.24;101596.03;4956431;28;20034;-68
2022/07/29 05:52:17;;;;;;;0.00;0.00;;;;;;;14.69;93.27;101603.72;4959025;28;20447;-68
2022/07/29 05:54:43;;;;;;;0.00;0.00;;;;;;;14.82;93.42;101604.44;4958764;28;20034;-68
2022/07/29 05:57:15;;;;;;;0.00;0.00;;;;;;;14.80;93.54;101570.38;4962476;28;20038;-68
2022/07/29 05:59:40;;;;;;;0.00;0.00;;;;;;;14.93;93.65;101584.59;4969046;28;20058;-68
2022/07/29 06:02:05;;;;;;;0.00;0.00;;;;;;;15.04;93.56;101601.75;4960644;28;20455;-68
2022/07/29 06:04:32;;;;;;;0.00;0.00;;;;;;;15.07;94.22;101596.06;4954295;28;20484;-69
2022/07/29 06:06:57;;;;;;;0.00;0.00;;;;;;;15.17;93.43;101590.72;4963593;28;20038;-68
2022/07/29 06:09:22;;;;;;;0.00;0.00;;;;;;;15.19;92.67;101568.00;4957678;28;20026;-69
2022/07/29 06:11:48;;;;;;;0.00;0.00;;;;;;;15.15;90.78;101566.53;4957823;28;20089;-69
2022/07/29 06:14:13;;;;;;;0.00;0.00;;;;;;;15.05;90.67;101561.06;4943988;28;20031;-68
2022/07/29 06:16:39;;;;;;;0.00;0.00;;;;;;;15.24;90.81;101592.78;4959811;28;20035;-69
2022/07/29 06:19:04;;;;;;;0.00;0.00;;;;;;;15.20;91.37;101577.81;4963516;28;20478;-69
2022/07/29 06:21:29;;;;;;;0.00;0.00;;;;;;;15.36;90.72;101601.69;4963619;28;20470;-69
2022/07/29 06:23:55;;;;;;;0.00;0.00;;;;;;;15.35;91.19;101597.28;4963933;28;20058;-68
2022/07/29 06:26:20;;;;;;;0.00;0.00;;;;;;;15.51;90.71;101601.38;4966730;28;20027;-68
2022/07/29 06:28:45;;;;;;;0.00;0.00;;;;;;;15.47;90.82;101592.66;4959888;28;20121;-69
2022/07/29 06:31:11;;;;;;;0.00;0.00;;;;;;;15.47;90.90;101587.25;4965211;28;20038;-69
2022/07/29 06:33:36;;;;;;;0.00;0.00;;;;;;;15.60;89.32;101584.31;4967042;28;20066;-68
2022/07/29 06:36:04;;;;;;;0.00;0.00;;;;;;;15.64;89.56;101590.31;4971234;28;20057;-69
2022/07/29 06:38:29;;;;;;;0.00;0.00;;;;;;;15.73;88.98;101593.06;4964114;28;20038;-69
2022/07/29 06:41:05;;;;;;;0.00;0.00;;;;;;;15.65;87.02;101586.63;4966880;28;20027;-69
2022/07/29 06:43:37;;;;;;;0.00;0.00;;;;;;;15.56;87.03;101564.78;4964085;28;20035;-68
2022/07/29 06:46:08;;;;;;;0.00;0.00;;;;;;;15.77;87.17;101592.81;4967977;28;20455;-69
2022/07/29 06:48:34;;;;;;;0.00;0.00;;;;;;;15.81;88.01;101580.72;4962752;28;20534;-68
2022/07/29 06:51:00;;;;;;;0.00;0.00;;;;;;;15.74;87.61;101564.16;4961243;28;20471;-68
2022/07/29 06:53:26;;;;;;;0.00;0.00;;;;;;;15.85;85.31;101585.72;4965772;28;20118;-68
2022/07/29 06:55:52;;;;;;;0.00;0.00;;;;;;;15.95;85.71;101590.34;4965807;28;20031;-68
2022/07/29 06:58:20;;;;;;;0.00;0.00;;;;;;;15.98;86.02;101604.47;4965877;28;20031;-69
2022/07/29 07:00:45;;;;;;;0.00;0.00;;;;;;;16.03;87.29;101607.63;4957930;28;20037;-68
2022/07/29 07:03:11;;;;;;;0.03;0.03;;;;;;;16.11;86.92;101600.69;4964567;28;20031;-68
2022/07/29 07:05:36;;;;;;;0.00;0.00;;;;;;;16.17;86.15;101600.97;4967540;28;20026;-68
2022/07/29 07:08:02;;;;;;;0.00;0.00;;;;;;;16.18;84.52;101600.00;4971054;28;20026;-68
2022/07/29 07:10:28;;;;;;;0.00;0.00;;;;;;;16.31;84.67;101598.88;4967790;28;20026;-69
2022/07/29 07:12:53;;;;;;;0.00;0.00;;;;;;;16.40;85.17;101600.75;4964226;28;20034;-67
2022/07/29 07:15:21;;;;;;;0.00;0.00;;;;;;;16.47;85.34;101598.34;4962711;28;20414;-66
2022/07/29 07:17:49;;;;;;;0.03;0.03;;;;;;;16.42;84.18;101578.94;4965731;28;20030;-67
2022/07/29 07:20:15;;;;;;;0.10;0.10;;;;;;;16.40;85.89;101583.66;4966678;28;20035;-67
2022/07/29 07:22:41;;;;;;;0.00;0.00;;;;;;;16.60;83.25;101588.09;4968560;28;20142;-66
2022/07/29 07:25:06;;;;;;;0.00;0.00;;;;;;;16.67;82.16;101592.97;4965578;28;20121;-67
2022/07/29 07:27:32;;;;;;;0.00;0.00;;;;;;;16.71;84.93;101602.50;4962018;28;20023;-67
2022/07/29 07:29:57;;;;;;;0.00;0.00;;;;;;;16.67;84.10;101582.13;4963381;28;20570;-67
2022/07/29 07:32:23;;;;;;;0.00;0.00;;;;;;;16.82;83.78;101590.69;4961383;28;20498;-67
2022/07/29 07:34:48;;;;;;;0.00;0.00;;;;;;;16.85;81.70;101591.25;4962562;28;20488;-66
2022/07/29 07:37:14;;;;;;;0.00;0.00;;;;;;;16.71;82.79;101572.66;4962440;28;20031;-67
2022/07/29 07:39:40;;;;;;;0.00;0.00;;;;;;;16.98;84.94;101603.69;4959657;28;20039;-67
2022/07/29 07:42:05;;;;;;;0.10;0.10;;;;;;;17.03;84.70;101606.81;4961524;28;20394;-67
2022/07/29 07:44:30;;;;;;;0.00;0.00;;;;;;;17.09;82.58;101600.84;4961601;28;20078;-68
2022/07/29 07:46:56;;;;;;;0.00;0.00;;;;;;;17.12;84.03;101600.53;4957553;28;20146;-67
2022/07/29 07:49:21;;;;;;;0.00;0.00;;;;;;;17.12;81.42;101605.09;4962223;28;20025;-67
2022/07/29 07:51:46;;;;;;;0.00;0.00;;;;;;;17.23;82.20;101613.94;4958588;28;20034;-67
2022/07/29 07:54:12;;;;;;;0.00;0.00;;;;;;;17.16;81.27;101604.69;4960534;28;20070;-68
2022/07/29 07:56:37;;;;;;;0.00;0.00;;;;;;;17.12;80.80;101594.25;4958306;28;20146;-67
2022/07/29 07:59:02;;;;;;;0.00;0.00;;;;;;;17.33;81.45;101622.09;4949567;28;20030;-67
2022/07/29 08:01:27;;;;;;;0.00;0.00;;;;;;;17.31;81.55;101615.97;4965386;28;20144;-67
2022/07/29 08:03:53;;;;;;;0.00;0.00;;;;;;;17.19;79.09;101598.09;4963643;28;20384;-67
2022/07/29 08:06:18;;;;;;;0.00;0.00;;;;;;;17.21;78.94;101618.69;4964789;28;20515;-67
2022/07/29 08:08:44;;;;;;;0.00;0.00;;;;;;;17.22;80.72;101609.50;4962022;28;20031;-67
2022/07/29 08:11:09;;;;;;;0.00;0.00;;;;;;;17.18;80.13;101593.69;4955310;28;20556;-67
2022/07/29 08:13:35;;;;;;;0.00;0.00;;;;;;;17.34;80.67;101607.53;4963156;28;20453;-66
2022/07/29 08:16:01;;;;;;;0.03;0.03;;;;;;;17.37;80.59;101606.38;4958589;28;20022;-67
2022/07/29 08:18:30;;;;;;;0.00;0.00;;;;;;;17.28;82.15;101588.22;4958491;28;20026;-67
2022/07/29 08:20:56;;;;;;;0.00;0.00;;;;;;;17.45;81.91;101611.94;4957484;28;20065;-67
2022/07/29 08:23:22;;;;;;;0.00;0.00;;;;;;;17.45;81.37;101611.94;4961254;28;20135;-67
2022/07/29 08:25:48;;;;;;;0.00;0.00;;;;;;;17.56;80.49;101616.34;4959322;28;20026;-66
2022/07/29 08:28:14;;;;;;;0.00;0.00;;;;;;;17.61;81.77;101602.31;4959725;28;20650;-67
2022/07/29 08:30:39;;;;;;;0.00;0.00;;;;;;;17.80;79.95;101607.66;4955434;28;20376;-67
2022/07/29 08:33:04;;;;;;;0.00;0.00;;;;;;;17.86;77.09;101618.94;4961556;28;20034;-67
2022/07/29 08:35:30;;;;;;;0.00;0.00;;;;;;;17.75;79.11;101631.69;4957584;28;20509;-67
2022/07/29 08:37:56;;;;;;;0.00;0.00;;;;;;;17.64;78.32;101611.00;4962261;28;20026;-67
2022/07/29 08:40:23;;;;;;;0.00;0.00;;;;;;;17.77;77.48;101637.00;4967367;28;20038;-67
2022/07/29 08:42:49;;;;;;;0.00;0.00;;;;;;;17.90;77.47;101639.38;4969180;28;20027;-67
2022/07/29 08:45:15;;;;;;;0.00;0.00;;;;;;;18.38;78.42;101634.78;4969517;28;20106;-67
2022/07/29 08:47:40;;;;;;;0.00;0.00;;;;;;;18.89;78.51;101633.28;4959740;28;20037;-67
2022/07/29 08:50:07;;;;;;;0.00;0.00;;;;;;;19.25;76.09;101626.13;4958867;28;20037;-68
2022/07/29 08:52:35;;;;;;;0.00;0.00;;;;;;;19.51;77.64;101620.72;4955834;28;20232;-67
2022/07/29 08:55:01;;;;;;;0.00;0.00;;;;;;;19.38;75.27;101618.41;4955046;28;20803;-67
2022/07/29 08:57:27;;;;;;;0.00;0.00;;;;;;;19.52;76.06;101618.84;4957389;28;20035;-67
2022/07/29 08:59:54;;;;;;;0.00;0.00;;;;;;;19.74;77.47;101631.06;4960211;28;20043;-67
2022/07/29 09:02:20;;;;;;;0.00;0.00;;;;;;;19.76;77.45;101616.25;4955783;28;20109;-67
2022/07/29 09:04:46;;;;;;;0.00;0.00;;;;;;;19.79;75.97;101620.56;4958411;28;20033;-67
2022/07/29 09:07:18;;;;;;;0.00;0.00;;;;;;;19.82;74.95;101619.38;4951455;28;20030;-67
2022/07/29 09:09:44;;;;;;;0.00;0.00;;;;;;;20.02;74.16;101617.28;4959751;28;20038;-67
2022/07/29 09:12:11;;;;;;;0.00;0.00;;;;;;;19.88;73.76;101603.25;4957366;28;20034;-67
2022/07/29 09:14:39;;;;;;;0.00;0.00;;;;;;;20.30;74.76;101617.91;4958522;28;20042;-67
2022/07/29 09:17:05;;;;;;;0.00;0.00;;;;;;;20.57;73.23;101618.66;4957756;28;20193;-67
2022/07/29 09:19:35;;;;;;;0.00;0.00;;;;;;;20.71;71.17;101621.78;4956908;28;20041;-67
2022/07/29 09:22:03;;;;;;;0.00;0.00;;;;;;;20.75;70.43;101620.44;4971122;28;20162;-67
2022/07/29 09:24:39;;;;;;;0.10;0.00;;;;;;;20.75;73.17;101626.72;4954300;28;20125;-67
2022/07/29 09:27:10;;;;;;;0.00;0.00;;;;;;;20.72;70.91;101626.22;4953981;28;20405;-67
2022/07/29 09:29:36;;;;;;;0.00;0.00;;;;;;;20.91;70.94;101631.38;4956124;28;20044;-67
2022/07/29 09:32:06;;;;;;;0.00;0.00;;;;;;;21.03;70.12;101628.34;4954547;28;20122;-67
2022/07/29 09:34:31;;;;;;;0.00;0.00;;;;;;;21.23;70.34;101626.97;4953491;28;20031;-67
2022/07/29 09:36:57;;;;;;;0.00;0.00;;;;;;;21.43;68.97;101624.75;4949591;28;20069;-68
2022/07/29 09:39:45;;;;;;;0.00;0.00;;;;;;;21.19;69.34;101624.75;4958040;28;20038;-68
2022/07/29 09:42:11;;;;;;;0.00;0.00;;;;;;;21.16;67.62;101600.53;4956525;28;20045;-68
2022/07/29 09:44:42;;;;;;;0.00;0.00;;;;;;;21.53;67.95;101631.88;4957847;28;20034;-68
2022/07/29 09:47:08;;;;;;;0.00;0.00;;;;;;;21.34;66.09;101606.66;4958993;28;20497;-68
2022/07/29 09:49:34;;;;;;;0.05;0.05;;;;;;;21.37;67.01;101581.72;4956156;28;20490;-67
2022/07/29 09:52:08;;;;;;;0.00;0.00;;;;;;;21.83;67.60;101618.53;4954636;28;20038;-67
2022/07/29 09:54:38;;;;;;;0.00;0.00;;;;;;;22.01;64.90;101624.63;4952285;28;20588;-67
2022/07/29 09:57:05;;;;;;;0.00;0.00;;;;;;;22.24;64.75;101626.59;4953016;28;20066;-68
2022/07/29 09:59:30;;;;;;;0.00;0.00;;;;;;;22.31;64.72;101634.94;4955125;28;20027;-68
2022/07/29 10:01:56;;;;;;;0.00;0.00;;;;;;;22.25;65.82;101632.91;4954208;28;20034;-68
2022/07/29 10:04:21;;;;;;;0.00;0.00;;;;;;;22.00;63.90;101620.16;4956500;28;20030;-68
2022/07/29 10:07:01;;;;;;;0.35;0.00;;;;;;;22.26;64.46;101637.34;4954433;28;20065;-68
2022/07/29 10:09:26;;;;;;;0.00;0.00;;;;;;;22.61;65.11;101648.84;4970008;28;20463;-68
2022/07/29 10:12:15;;;;;;;0.00;0.00;;;;;;;22.43;61.51;101636.25;4956394;28;20034;-68
2022/07/29 10:14:41;;;;;;;0.00;0.00;;;;;;;22.77;62.19;101640.50;4951247;28;20097;-67
2022/07/29 10:17:07;;;;;;;0.00;0.00;;;;;;;23.13;62.81;101644.53;4952862;28;20142;-67
2022/07/29 10:19:34;;;;;;;0.03;0.00;;;;;;;23.28;62.34;101619.97;4951383;28;20109;-67
2022/07/29 10:22:02;;;;;;;0.00;0.00;;;;;;;23.56;61.32;101638.53;4956219;28;20408;-67
2022/07/29 10:24:29;;;;;;;0.00;0.00;;;;;;;23.56;59.44;101618.50;4957958;28;20031;-67
2022/07/29 10:26:55;;;;;;;0.00;0.00;;;;;;;23.39;58.47;101628.78;4958485;28;20355;-71
2022/07/29 10:29:20;;;;;;;0.00;0.00;;;;;;;23.53;63.09;101622.47;4957608;28;20034;-68
2022/07/29 10:32:25;;;;;;;0.00;0.00;;;;;;;23.37;58.88;101631.69;4959437;28;20030;-67
2022/07/29 10:35:15;;;;;;;0.00;0.00;;;;;;;23.91;57.64;101621.53;4963226;28;20039;-67
2022/07/29 10:38:22;;;;;;;0.00;0.00;;;;;;;24.25;56.29;101629.19;4957190;28;20438;-67
2022/07/29 10:43:41;;;;;;;0.00;0.00;;;;;;;24.15;58.34;101617.69;4953804;28;20054;-67
2022/07/29 10:46:06;;;;;;;0.00;0.00;;;;;;;24.00;56.13;101616.81;4954872;28;20046;-67
2022/07/29 10:48:32;;;;;;;0.00;0.00;;;;;;;24.04;57.66;101620.91;4965895;28;20542;-66
2022/07/29 10:51:00;;;;;;;0.00;0.00;;;;;;;24.52;56.90;101617.69;4963898;28;20029;-67
2022/07/29 10:53:48;;;;;;;0.00;0.00;;;;;;;24.83;56.62;101620.16;4954759;28;20049;-68
2022/07/29 10:56:25;;;;;;;0.00;0.00;;;;;;;24.89;52.97;101599.34;4957490;28;20475;-70
2022/07/29 10:59:25;;;;;;;0.00;0.00;;;;;;;25.22;53.37;101611.66;4957947;28;20034;-67
2022/07/29 11:01:53;;;;;;;0.05;0.05;;;;;;;25.47;51.21;101594.75;4952520;28;20047;-67
2022/07/29 11:04:44;;;;;;;0.00;0.00;;;;;;;25.23;54.89;101608.69;4958676;28;20497;-69
2022/07/29 11:07:10;;;;;;;0.00;0.00;;;;;;;25.73;53.35;101610.56;4952575;28;20808;-67
2022/07/29 11:09:35;;;;;;;0.00;0.00;;;;;;;25.99;51.95;101609.00;4955018;28;20032;-67
2022/07/29 11:12:01;;;;;;;0.00;0.00;;;;;;;26.28;48.04;101612.56;4960246;28;20458;-67
2022/07/29 11:14:55;;;;;;;0.00;0.00;;;;;;;26.55;47.15;101607.13;4955351;28;20027;-67
2022/07/29 11:17:20;;;;;;;0.00;0.00;;;;;;;26.17;48.89;101595.59;4963464;28;20101;-68
2022/07/29 11:19:46;;;;;;;0.10;0.00;;;;;;;26.58;47.79;101620.50;4958171;28;20027;-67
2022/07/29 11:22:32;;;;;;;0.00;0.00;;;;;;;26.88;45.11;101587.94;4956942;28;20022;-67
2022/07/29 11:25:16;;;;;;;0.00;0.00;;;;;;;27.20;49.08;101615.72;4957287;28;20050;-67
2022/07/29 11:27:42;;;;;;;0.00;0.00;;;;;;;27.33;46.67;101606.59;4960841;28;20058;-67
2022/07/29 11:30:09;;;;;;;0.10;0.10;;;;;;;27.73;45.14;101611.25;4962107;28;20182;-68
2022/07/29 11:32:39;;;;;;;0.00;0.00;;;;;;;27.49;46.02;101612.78;4961296;28;20058;-67